createdAt,value
2018-07-19T00:01:27.770Z,70.10
2018-07-19T00:03:56.934Z,69.80
2018-07-19T00:06:26.077Z,70.70
2018-07-19T00:08:54.951Z,71.00
2018-07-19T00:11:24.023Z,71.20
2018-07-19T00:13:52.985Z,70.60
2018-07-19T00:16:21.989Z,69.90
2018-07-19T00:18:50.909Z,70.60
2018-07-19T00:21:19.827Z,70.30
2018-07-19T00:23:48.697Z,70.50
2018-07-19T00:26:17.649Z,69.80
2018-07-19T00:28:46.538Z,71.00
2018-07-19T00:31:15.407Z,71.30
2018-07-19T00:33:44.350Z,71.50
2018-07-19T00:36:13.268Z,71.60
2018-07-19T00:38:42.168Z,71.80
2018-07-19T00:41:11.299Z,72.50
2018-07-19T00:43:40.282Z,73.50
2018-07-19T00:46:09.171Z,74.10
2018-07-19T00:48:38.268Z,74.80
2018-07-19T00:51:07.348Z,76.40
2018-07-19T00:53:36.400Z,77.00
2018-07-19T00:56:05.384Z,77.00
2018-07-19T00:58:34.428Z,77.10
2018-07-19T01:01:03.331Z,76.60
2018-07-19T01:03:32.233Z,76.60
2018-07-19T01:06:01.119Z,76.80
2018-07-19T01:08:30.016Z,77.10
2018-07-19T01:10:59.000Z,75.80
2018-07-19T01:13:27.864Z,77.10
2018-07-19T01:15:56.775Z,78.40
2018-07-19T01:18:25.708Z,78.20
2018-07-19T01:20:54.676Z,79.60
2018-07-19T01:23:23.584Z,79.30
2018-07-19T01:25:52.651Z,80.10
2018-07-19T01:30:50.329Z,81.70
2018-07-19T01:33:19.423Z,82.30
2018-07-19T01:35:48.311Z,82.70
2018-07-19T01:38:17.212Z,83.20
2018-07-19T01:40:46.176Z,83.80
2018-07-19T01:43:15.068Z,84.30
2018-07-19T01:45:43.962Z,84.40
2018-07-19T01:48:12.868Z,85.90
2018-07-19T01:50:41.775Z,86.50
2018-07-19T01:53:10.783Z,86.30
2018-07-19T01:55:39.750Z,86.30
2018-07-19T01:58:08.672Z,85.60
2018-07-19T02:00:37.580Z,84.00
2018-07-19T02:03:06.455Z,84.40
2018-07-19T02:05:35.348Z,85.10
2018-07-19T02:08:04.410Z,84.00
2018-07-19T02:10:33.693Z,82.90
2018-07-19T02:15:31.059Z,85.10
2018-07-19T02:18:00.068Z,85.00
2018-07-19T02:20:29.027Z,85.60
2018-07-19T02:22:57.963Z,84.80
2018-07-19T02:25:26.844Z,84.50
2018-07-19T02:27:55.738Z,86.10
2018-07-19T02:30:24.655Z,85.60
2018-07-19T02:32:53.542Z,86.70
2018-07-19T02:35:22.441Z,86.40
2018-07-19T02:37:51.319Z,85.90
2018-07-19T02:40:20.206Z,86.00
2018-07-19T02:42:49.080Z,85.30
2018-07-19T02:45:18.034Z,85.70
2018-07-19T02:47:46.907Z,86.00
2018-07-19T02:50:15.836Z,87.10
2018-07-19T02:52:44.756Z,87.60
2018-07-19T02:55:13.680Z,88.00
2018-07-19T02:57:42.591Z,88.50
2018-07-19T03:00:11.623Z,88.10
2018-07-19T03:02:40.557Z,87.30
2018-07-19T03:05:09.899Z,87.10
2018-07-19T03:07:38.924Z,86.10
2018-07-19T03:10:07.936Z,85.80
2018-07-19T03:12:36.826Z,88.20
2018-07-19T03:15:06.266Z,87.50
2018-07-19T03:17:35.222Z,87.10
2018-07-19T03:20:04.434Z,85.70
2018-07-19T03:22:33.330Z,87.30
2018-07-19T03:25:02.272Z,87.20
2018-07-19T03:27:31.137Z,86.70
2018-07-19T03:30:00.201Z,87.00
2018-07-19T03:32:29.154Z,86.80
2018-07-19T03:34:58.121Z,86.70
2018-07-19T03:37:27.059Z,87.20
2018-07-19T03:39:55.944Z,87.00
2018-07-19T03:42:24.880Z,86.90
2018-07-19T03:44:54.092Z,86.80
2018-07-19T03:47:23.025Z,87.10
2018-07-19T03:49:51.939Z,87.00
2018-07-19T03:52:20.984Z,87.10
2018-07-19T03:54:49.967Z,85.90
2018-07-19T03:57:18.847Z,86.70
2018-07-19T03:59:47.728Z,88.10
2018-07-19T04:02:16.641Z,89.50
2018-07-19T04:04:45.554Z,90.00
2018-07-19T04:07:14.500Z,90.40
2018-07-19T04:09:43.360Z,90.60
2018-07-19T04:12:13.935Z,90.80
2018-07-19T04:14:42.966Z,91.10
2018-07-19T04:19:40.300Z,90.90
2018-07-19T04:22:09.179Z,90.60
2018-07-19T04:24:38.438Z,90.60
2018-07-19T04:29:36.032Z,90.60
2018-07-19T04:32:05.078Z,90.20
2018-07-19T04:34:34.333Z,90.10
2018-07-19T04:37:03.225Z,90.20
2018-07-19T04:39:32.352Z,90.30
2018-07-19T04:42:01.256Z,90.50
2018-07-19T04:44:31.364Z,90.70
2018-07-19T04:47:00.429Z,91.10
2018-07-19T04:49:29.328Z,91.70
2018-07-19T04:51:58.244Z,91.30
2018-07-19T04:54:27.442Z,91.30
2018-07-19T04:56:56.348Z,91.40
2018-07-19T04:59:25.365Z,91.60
2018-07-19T05:01:54.474Z,91.80
2018-07-19T05:04:23.325Z,91.80
2018-07-19T05:06:52.258Z,91.90
2018-07-19T05:09:21.171Z,92.40
2018-07-19T05:11:50.167Z,91.80
2018-07-19T05:14:19.167Z,91.50
2018-07-19T05:16:48.112Z,91.40
2018-07-19T05:19:16.965Z,91.30
2018-07-19T05:21:45.899Z,91.00
2018-07-19T05:24:14.996Z,90.70
2018-07-19T05:26:43.956Z,90.20
2018-07-19T05:29:12.823Z,88.80
2018-07-19T05:31:41.768Z,88.40
2018-07-19T05:34:10.657Z,88.30
2018-07-19T05:36:39.893Z,87.30
2018-07-19T05:39:08.811Z,87.10
2018-07-19T05:41:37.731Z,86.90
2018-07-19T05:44:06.699Z,86.40
2018-07-19T05:46:35.753Z,85.30
2018-07-19T05:49:05.247Z,85.70
2018-07-19T05:51:34.503Z,85.40
2018-07-19T05:54:03.415Z,86.00
2018-07-19T05:56:32.336Z,86.30
2018-07-19T05:59:01.265Z,86.30
2018-07-19T06:01:30.273Z,86.00
2018-07-19T06:03:59.179Z,86.40
2018-07-19T06:06:28.072Z,86.10
2018-07-19T06:08:57.209Z,86.40
2018-07-19T06:16:23.211Z,86.00
2018-07-19T06:18:52.369Z,86.10
2018-07-19T06:21:21.280Z,85.40
2018-07-19T06:23:50.192Z,84.00
2018-07-19T06:28:47.676Z,83.80
2018-07-19T06:31:16.590Z,83.60
2018-07-19T06:33:45.460Z,83.00
2018-07-19T06:36:14.347Z,81.70
2018-07-19T06:38:43.268Z,80.00
2018-07-19T06:41:12.181Z,77.30
2018-07-19T06:43:41.105Z,76.70
2018-07-19T06:46:10.024Z,75.60
2018-07-19T06:48:38.979Z,74.80
2018-07-19T06:51:07.892Z,74.30
2018-07-19T06:53:36.967Z,73.40
2018-07-19T06:56:05.948Z,73.70
2018-07-19T06:58:34.907Z,74.10
2018-07-19T07:01:03.813Z,74.80
2018-07-19T07:03:32.858Z,75.20
2018-07-19T07:06:01.800Z,75.80
2018-07-19T07:08:30.951Z,76.20
2018-07-19T07:10:59.854Z,76.30
2018-07-19T07:13:28.820Z,76.00
2018-07-19T07:15:57.978Z,76.70
2018-07-19T07:18:26.879Z,76.60
2018-07-19T07:20:55.771Z,76.10
2018-07-19T07:23:24.980Z,75.90
2018-07-19T07:25:54.211Z,76.50
2018-07-19T07:28:23.489Z,76.00
2018-07-19T07:30:53.259Z,76.00
2018-07-19T07:33:22.158Z,75.10
2018-07-19T07:35:51.159Z,76.40
2018-07-19T07:38:20.122Z,74.00
2018-07-19T07:40:49.047Z,73.40
2018-07-19T07:43:18.148Z,73.50
2018-07-19T07:45:47.044Z,73.90
2018-07-19T07:48:15.940Z,73.40
2018-07-19T07:50:44.958Z,72.90
2018-07-19T07:53:13.912Z,71.90
2018-07-19T07:55:42.801Z,71.50
2018-07-19T07:58:12.808Z,70.40
2018-07-19T08:00:41.788Z,70.20
2018-07-19T08:03:10.760Z,70.30
2018-07-19T08:05:39.704Z,70.10
2018-07-19T08:08:08.584Z,69.50
2018-07-19T08:10:37.695Z,69.10
2018-07-19T08:13:06.683Z,68.50
2018-07-19T08:15:35.769Z,67.90
2018-07-19T08:18:04.553Z,69.10
2018-07-19T08:20:33.544Z,70.00
2018-07-19T08:23:02.637Z,69.90
2018-07-19T08:25:32.292Z,70.00
2018-07-19T08:28:01.193Z,69.50
2018-07-19T08:30:30.088Z,69.90
2018-07-19T08:32:59.134Z,70.00
2018-07-19T08:35:28.267Z,70.50
2018-07-19T08:37:57.355Z,70.20
2018-07-19T08:40:26.455Z,70.40
2018-07-19T08:42:55.355Z,69.80
2018-07-19T08:45:24.259Z,69.50
2018-07-19T08:47:53.160Z,69.20
2018-07-19T08:50:22.140Z,68.70
2018-07-19T08:52:51.037Z,67.60
2018-07-19T08:55:20.482Z,67.30
2018-07-19T09:00:18.280Z,67.70
2018-07-19T09:02:47.229Z,67.20
2018-07-19T09:05:16.155Z,67.30
2018-07-19T09:07:45.084Z,67.10
2018-07-19T09:10:14.413Z,66.70
2018-07-19T09:12:43.456Z,67.20
2018-07-19T09:15:12.403Z,66.40
2018-07-19T09:17:41.327Z,66.40
2018-07-19T09:20:10.334Z,66.50
2018-07-19T09:22:39.299Z,66.10
2018-07-19T09:25:08.267Z,65.40
2018-07-19T09:27:37.170Z,65.80
2018-07-19T09:30:06.689Z,64.00
2018-07-19T09:32:35.735Z,65.10
2018-07-19T09:35:04.694Z,65.60
2018-07-19T09:37:33.900Z,64.10
2018-07-19T09:40:03.328Z,64.30
2018-07-19T09:42:32.241Z,64.20
2018-07-19T09:45:01.110Z,64.10
2018-07-19T09:47:29.976Z,63.70
2018-07-19T09:49:59.127Z,63.30
2018-07-19T09:52:28.071Z,62.40
2018-07-19T09:54:57.545Z,62.10
2018-07-19T09:57:26.638Z,62.00
2018-07-19T09:59:55.860Z,61.30
2018-07-19T10:02:24.748Z,60.30
2018-07-19T10:04:53.770Z,60.10
2018-07-19T10:07:22.617Z,60.20
2018-07-19T10:09:51.552Z,59.60
2018-07-19T10:12:20.431Z,59.50
2018-07-19T10:14:49.332Z,59.90
2018-07-19T10:17:18.315Z,57.70
2018-07-19T10:19:47.120Z,57.90
2018-07-19T10:22:16.685Z,57.60
2018-07-19T10:24:45.609Z,57.70
2018-07-19T10:27:14.497Z,57.20
2018-07-19T10:29:43.356Z,57.70
2018-07-19T10:32:12.382Z,58.10
2018-07-19T10:34:41.132Z,57.40
2018-07-19T10:37:10.109Z,56.60
2018-07-19T10:39:39.323Z,57.20
2018-07-19T10:42:08.825Z,56.40
2018-07-19T10:44:37.805Z,56.60
2018-07-19T10:47:06.718Z,57.00
2018-07-19T10:49:35.568Z,56.70
2018-07-19T10:52:04.765Z,56.80
2018-07-19T10:54:33.774Z,56.90
2018-07-19T10:57:02.660Z,57.30
2018-07-19T10:59:31.532Z,56.10
2018-07-19T11:02:00.451Z,55.80
2018-07-19T11:04:29.406Z,57.00
2018-07-19T11:06:58.467Z,56.50
2018-07-19T11:09:27.355Z,55.40
2018-07-19T11:11:56.309Z,54.10
2018-07-19T11:14:25.167Z,54.80
2018-07-19T11:16:54.318Z,56.00
2018-07-19T11:19:23.279Z,55.70
2018-07-19T11:21:52.223Z,55.40
2018-07-19T11:24:21.126Z,56.90
2018-07-19T11:26:50.092Z,56.90
2018-07-19T11:29:19.040Z,56.40
2018-07-19T11:31:48.273Z,56.20
2018-07-19T11:34:17.231Z,55.40
2018-07-19T11:36:46.139Z,55.50
2018-07-19T11:39:14.975Z,55.50
2018-07-19T11:41:44.562Z,53.80
2018-07-19T11:44:13.495Z,54.20
2018-07-19T11:46:43.518Z,54.00
2018-07-19T11:49:12.668Z,55.40
2018-07-19T11:51:44.376Z,54.60
2018-07-19T11:54:13.413Z,54.90
2018-07-19T11:56:42.274Z,55.30
2018-07-19T11:59:11.533Z,54.30
2018-07-19T12:01:40.621Z,53.80
2018-07-19T12:04:10.649Z,54.10
2018-07-19T12:06:39.612Z,54.60
2018-07-19T12:11:37.245Z,52.90
2018-07-19T12:14:06.300Z,54.60
2018-07-19T12:16:35.316Z,54.20
2018-07-19T12:19:04.542Z,54.20
2018-07-19T12:21:33.412Z,54.10
2018-07-19T12:24:02.298Z,54.00
2018-07-19T12:26:31.220Z,54.80
2018-07-19T12:29:00.264Z,54.10
2018-07-19T12:31:29.321Z,54.40
2018-07-19T12:33:58.479Z,53.50
2018-07-19T12:36:27.562Z,53.60
2018-07-19T12:38:56.595Z,52.80
2018-07-19T12:41:25.748Z,52.10
2018-07-19T12:43:54.619Z,53.20
2018-07-19T12:46:23.679Z,52.70
2018-07-19T12:48:52.585Z,51.80
2018-07-19T12:51:21.476Z,51.50
2018-07-19T12:53:50.583Z,51.30
2018-07-19T12:56:19.588Z,50.70
2018-07-19T12:58:49.260Z,50.50
2018-07-19T13:01:18.247Z,50.50
2018-07-19T13:03:47.535Z,49.50
2018-07-19T13:06:16.419Z,49.90
2018-07-19T13:08:45.245Z,49.40
2018-07-19T13:11:14.117Z,49.40
2018-07-19T13:13:43.400Z,50.00
2018-07-19T13:16:12.932Z,49.10
2018-07-19T13:18:41.789Z,48.40
2018-07-19T13:21:10.810Z,48.90
2018-07-19T13:23:40.002Z,48.90
2018-07-19T13:26:08.973Z,49.90
2018-07-19T13:28:38.003Z,48.10
2018-07-19T13:31:07.700Z,48.80
2018-07-19T13:36:06.368Z,49.50
2018-07-19T13:41:04.155Z,49.60
2018-07-19T13:43:33.091Z,49.90
2018-07-19T13:46:02.083Z,49.40
2018-07-19T13:48:32.132Z,49.80
2018-07-19T13:51:01.142Z,49.30
2018-07-19T13:53:41.207Z,50.70
2018-07-19T13:56:10.222Z,49.00
2018-07-19T13:58:40.108Z,49.60
2018-07-19T14:01:09.091Z,49.40
2018-07-19T14:03:37.943Z,49.00
2018-07-19T14:06:06.873Z,50.50
2018-07-19T14:08:35.716Z,49.70
2018-07-19T14:11:04.675Z,50.10
2018-07-19T14:13:33.560Z,50.40
2018-07-19T14:16:02.498Z,49.60
2018-07-19T14:18:31.384Z,49.60
2018-07-19T14:21:00.355Z,50.80
2018-07-19T14:23:29.259Z,49.60
2018-07-19T14:25:58.204Z,50.10
2018-07-19T14:28:27.093Z,50.40
2018-07-19T14:30:55.928Z,49.60
2018-07-19T14:33:25.044Z,50.30
2018-07-19T14:35:53.962Z,50.20
2018-07-19T14:38:23.043Z,50.70
2018-07-19T14:40:52.146Z,51.30
2018-07-19T14:43:21.554Z,49.90
2018-07-19T14:45:50.485Z,50.60
2018-07-19T14:48:19.620Z,50.60
2018-07-19T14:50:48.462Z,50.00
2018-07-19T14:53:17.332Z,50.80
2018-07-19T14:55:46.229Z,51.30
2018-07-19T14:58:15.383Z,50.20
2018-07-19T15:00:44.287Z,50.30
2018-07-19T15:03:13.492Z,50.10
2018-07-19T15:05:42.456Z,49.70
2018-07-19T15:08:11.379Z,50.00
2018-07-19T15:10:40.379Z,49.40
2018-07-19T15:13:09.287Z,50.00
2018-07-19T15:15:38.159Z,49.20
2018-07-19T15:18:07.131Z,50.30
2018-07-19T15:20:36.227Z,49.70
2018-07-19T15:23:05.412Z,50.10
2018-07-19T15:25:34.331Z,50.20
2018-07-19T15:28:03.261Z,49.10
2018-07-19T15:30:32.885Z,49.30
2018-07-19T15:33:01.947Z,50.20
2018-07-19T15:35:30.825Z,49.60
2018-07-19T15:37:59.880Z,50.10
2018-07-19T15:40:28.727Z,49.90
2018-07-19T15:42:58.244Z,49.90
2018-07-19T15:45:27.117Z,50.00
2018-07-19T15:47:56.004Z,48.60
2018-07-19T15:50:24.921Z,49.20
2018-07-19T15:52:53.816Z,49.30
2018-07-19T15:55:22.741Z,49.40
2018-07-19T15:57:51.632Z,49.30
2018-07-19T16:00:20.517Z,49.20
2018-07-19T16:02:49.374Z,48.70
2018-07-19T16:05:18.284Z,48.20
2018-07-19T16:07:47.147Z,48.40
2018-07-19T16:10:16.032Z,48.90
2018-07-19T16:12:45.082Z,48.10
2018-07-19T16:15:14.080Z,48.20
2018-07-19T16:17:43.059Z,48.50
2018-07-19T16:22:40.640Z,48.80
2018-07-19T16:25:09.551Z,47.80
2018-07-19T16:27:38.797Z,48.40
2018-07-19T16:30:07.651Z,48.70
2018-07-19T16:32:36.579Z,48.70
2018-07-19T16:35:05.497Z,49.10
2018-07-19T16:37:34.874Z,48.90
2018-07-19T16:40:03.984Z,48.90
2018-07-19T16:42:33.072Z,49.20
2018-07-19T16:45:01.933Z,48.70
2018-07-19T16:47:30.899Z,49.10
2018-07-19T16:49:59.947Z,49.10
2018-07-19T16:52:28.824Z,48.50
2018-07-19T16:54:58.144Z,48.60
2018-07-19T16:57:27.090Z,48.70
2018-07-19T16:59:55.987Z,48.60
2018-07-19T17:02:25.132Z,49.20
2018-07-19T17:07:22.562Z,48.80
2018-07-19T17:09:51.490Z,49.10
2018-07-19T17:12:20.432Z,49.60
2018-07-19T17:14:49.456Z,49.60
2018-07-19T17:19:47.120Z,49.60
2018-07-19T17:27:14.851Z,50.20
2018-07-19T17:29:43.991Z,49.40
2018-07-19T17:32:12.876Z,49.90
2018-07-19T17:34:41.763Z,49.50
2018-07-19T17:37:10.965Z,49.10
2018-07-19T17:39:39.868Z,49.00
2018-07-19T17:42:08.800Z,50.20
2018-07-19T17:44:37.671Z,49.50
2018-07-19T17:47:06.785Z,49.20
2018-07-19T17:49:35.888Z,49.40
2018-07-19T17:52:05.073Z,49.70
2018-07-19T17:54:34.569Z,50.30
2018-07-19T17:57:03.504Z,50.00
2018-07-19T17:59:32.474Z,50.00
2018-07-19T18:02:01.424Z,50.50
2018-07-19T18:04:30.392Z,50.60
2018-07-19T18:06:59.335Z,51.20
2018-07-19T18:09:28.267Z,51.50
2018-07-19T18:11:57.252Z,50.90
2018-07-19T18:14:26.335Z,50.90
2018-07-19T18:16:55.260Z,51.00
2018-07-19T18:19:24.117Z,51.00
2018-07-19T18:21:53.083Z,50.70
2018-07-19T18:24:21.956Z,51.30
2018-07-19T18:26:50.859Z,51.50
2018-07-19T18:29:19.947Z,51.30
2018-07-19T18:31:48.855Z,51.40
2018-07-19T18:34:17.936Z,52.30
2018-07-19T18:36:46.831Z,52.00
2018-07-19T18:39:15.742Z,52.40
2018-07-19T18:41:44.736Z,52.90
2018-07-19T18:44:13.647Z,53.20
2018-07-19T18:46:42.604Z,52.90
2018-07-19T18:49:11.516Z,53.70
2018-07-19T18:51:41.084Z,53.80
2018-07-19T18:54:10.045Z,54.10
2018-07-19T18:56:38.953Z,54.90
2018-07-19T19:01:36.469Z,55.20
2018-07-19T19:04:05.439Z,55.20
2018-07-19T19:09:03.170Z,55.70
2018-07-19T19:11:32.300Z,56.10
2018-07-19T19:16:30.252Z,56.00
2018-07-19T19:18:59.268Z,56.70
2018-07-19T19:21:28.376Z,56.70
2018-07-19T19:23:57.294Z,56.50
2018-07-19T19:26:26.238Z,56.60
2018-07-19T19:28:55.949Z,57.40
2018-07-19T19:31:25.013Z,57.30
2018-07-19T19:33:53.972Z,57.20
2018-07-19T19:36:23.174Z,57.30
2018-07-19T19:38:52.073Z,57.10
2018-07-19T19:41:21.056Z,57.30
2018-07-19T19:43:50.399Z,57.90
2018-07-19T19:46:19.757Z,57.40
2018-07-19T19:48:48.655Z,57.80
2018-07-19T19:51:17.667Z,57.70
2018-07-19T19:53:46.626Z,57.80
2018-07-19T19:56:15.575Z,58.00
2018-07-19T19:58:44.566Z,58.40
2018-07-19T20:01:13.526Z,59.00
2018-07-19T20:03:42.532Z,58.80
2018-07-19T20:06:12.338Z,59.40
2018-07-19T20:08:41.691Z,59.20
2018-07-19T20:11:10.812Z,59.50
2018-07-19T20:13:39.953Z,59.50
2018-07-19T20:16:08.859Z,59.70
2018-07-19T20:18:38.317Z,60.00
2018-07-19T20:21:07.175Z,60.20
2018-07-19T20:23:36.182Z,60.30
2018-07-19T20:26:05.130Z,60.90
2018-07-19T20:28:34.221Z,61.20
2018-07-19T20:31:03.125Z,61.20
2018-07-19T20:33:32.006Z,61.70
2018-07-19T20:36:01.168Z,61.70
2018-07-19T20:38:30.077Z,62.40
2018-07-19T20:40:59.019Z,62.50
2018-07-19T20:43:28.044Z,62.10
2018-07-19T20:45:56.961Z,63.20
2018-07-19T20:48:26.127Z,63.20
2018-07-19T20:50:55.135Z,63.70
2018-07-19T20:53:24.164Z,63.60
2018-07-19T20:55:53.196Z,63.40
2018-07-19T20:58:22.252Z,63.10
2018-07-19T21:00:51.228Z,63.20
2018-07-19T21:03:20.377Z,63.80
2018-07-19T21:05:49.267Z,64.30
2018-07-19T21:08:18.158Z,64.20
2018-07-19T21:10:47.032Z,64.00
2018-07-19T21:13:16.161Z,64.30
2018-07-19T21:15:45.039Z,65.00
2018-07-19T21:18:14.027Z,64.40
2018-07-19T21:20:42.859Z,64.40
2018-07-19T21:23:11.770Z,64.50
2018-07-19T21:25:40.646Z,65.40
2018-07-19T21:28:09.552Z,65.00
2018-07-19T21:30:38.665Z,64.70
2018-07-19T21:33:07.607Z,65.20
2018-07-19T21:35:36.531Z,65.00
2018-07-19T21:38:05.440Z,65.50
2018-07-19T21:40:34.416Z,65.50
2018-07-19T21:43:03.392Z,65.90
2018-07-19T21:45:32.279Z,65.70
2018-07-19T21:48:01.302Z,65.80
2018-07-19T21:50:30.186Z,66.10
2018-07-19T21:52:59.176Z,66.20
2018-07-19T21:55:28.136Z,66.10
2018-07-19T21:57:57.050Z,66.70
2018-07-19T22:00:26.155Z,66.80
2018-07-19T22:02:55.160Z,65.50
2018-07-19T22:05:24.316Z,67.20
2018-07-19T22:07:53.223Z,67.20
2018-07-19T22:10:22.302Z,68.40
2018-07-19T22:12:51.203Z,67.60
2018-07-19T22:15:20.125Z,67.20
2018-07-19T22:17:49.046Z,67.70
2018-07-19T22:20:18.098Z,67.70
2018-07-19T22:22:47.160Z,67.80
2018-07-19T22:25:16.063Z,67.50
2018-07-19T22:27:44.932Z,68.50
2018-07-19T22:30:13.919Z,67.80
2018-07-19T22:32:42.928Z,68.90
2018-07-19T22:35:11.895Z,67.90
2018-07-19T22:37:40.776Z,67.80
2018-07-19T22:40:09.647Z,68.30
2018-07-19T22:42:38.656Z,68.50
2018-07-19T22:45:07.567Z,67.90
2018-07-19T22:47:36.452Z,68.50
2018-07-19T22:50:05.548Z,69.00
2018-07-19T22:52:34.491Z,68.90
2018-07-19T22:55:03.510Z,69.60
2018-07-19T22:57:32.394Z,68.80
2018-07-19T23:00:01.281Z,69.40
2018-07-19T23:02:30.173Z,69.90
2018-07-19T23:04:59.058Z,71.20
2018-07-19T23:07:27.946Z,70.60
2018-07-19T23:09:56.839Z,68.90
2018-07-19T23:12:25.735Z,69.60
2018-07-19T23:14:54.588Z,69.30
2018-07-19T23:17:23.503Z,68.80
2018-07-19T23:19:52.384Z,70.00
2018-07-19T23:22:21.291Z,71.00
2018-07-19T23:24:50.167Z,69.50
2018-07-19T23:27:19.087Z,69.90
2018-07-19T23:29:48.031Z,69.70
2018-07-19T23:32:16.907Z,70.20
2018-07-19T23:34:45.852Z,70.20
2018-07-19T23:37:14.719Z,71.50
2018-07-19T23:39:43.803Z,70.90
2018-07-19T23:42:12.777Z,70.30
2018-07-19T23:44:41.863Z,70.80
2018-07-19T23:47:10.945Z,71.00
2018-07-19T23:49:39.836Z,70.90
2018-07-19T23:52:08.674Z,71.40
2018-07-19T23:54:37.584Z,72.10
2018-07-19T23:57:06.547Z,71.40
2018-07-19T23:59:35.422Z,72.80
